Time;durP1;ratioP1;P1;durP2;ratioP2;P2;SDS_P1;SDS_P2;PMS_P1;PMS_P2;Temp;Humidity;BMP_temperature;BMP_pressure;BME280_temperature;BME280_humidity;BME280_pressure;Samples;Min_cycle;Max_cycle;Signal;HPM_P1;HPM_P2
2021/05/27 00:01:49;;;;;;;4.10;2.10;;;;;;;;;;5106129;27;20458;-70
2021/05/27 00:04:16;;;;;;;3.10;1.70;;;;;;;;;;5100686;28;20578;-71
2021/05/27 00:06:44;;;;;;;2.93;1.50;;;;;;;;;;5117127;27;20489;-71
2021/05/27 00:09:14;;;;;;;2.93;2.07;;;;;;;;;;5110099;27;20484;-72
2021/05/27 00:11:41;;;;;;;5.60;1.80;;;;;;;;;;5106944;27;20904;-71
2021/05/27 00:14:09;;;;;;;3.53;2.10;;;;;;;;;;5107416;27;20534;-71
2021/05/27 00:16:36;;;;;;;3.80;1.87;;;;;;;;;;5105474;28;20486;-71
2021/05/27 00:19:04;;;;;;;2.33;1.50;;;;;;;;;;5103090;28;20466;-71
2021/05/27 00:21:31;;;;;;;3.20;1.53;;;;;;;;;;5106772;28;20440;-71
2021/05/27 00:23:59;;;;;;;2.40;1.70;;;;;;;;;;5107690;27;20482;-71
2021/05/27 00:26:26;;;;;;;3.23;1.70;;;;;;;;;;5105883;27;20802;-71
2021/05/27 00:28:53;;;;;;;2.90;2.03;;;;;;;;;;5098246;28;20536;-72
2021/05/27 00:31:21;;;;;;;3.37;1.70;;;;;;;;;;5097188;28;20756;-71
2021/05/27 00:33:49;;;;;;;1.60;1.30;;;;;;;;;;5098323;28;20503;-71
2021/05/27 00:36:16;;;;;;;5.47;1.87;;;;;;;;;;5097016;28;20541;-71
2021/05/27 00:38:43;;;;;;;3.60;1.57;;;;;;;;;;5112405;27;20894;-71
2021/05/27 00:41:11;;;;;;;4.27;2.40;;;;;;;;;;5117007;27;20451;-71
2021/05/27 00:43:38;;;;;;;2.63;2.17;;;;;;;;;;5102881;28;21050;-71
2021/05/27 00:46:05;;;;;;;4.77;1.70;;;;;;;;;;5101162;28;20463;-71
2021/05/27 00:51:22;;;;;;;2.40;1.90;;;;;;;;;;5119560;27;20429;-71
2021/05/27 00:53:49;;;;;;;2.90;1.67;;;;;;;;;;5104110;28;20589;-71
2021/05/27 00:56:16;;;;;;;2.73;1.70;;;;;;;;;;5112015;27;20932;-71
2021/05/27 00:58:55;;;;;;;5.27;2.20;;;;;;;;;;5120442;27;20520;-71
2021/05/27 01:01:23;;;;;;;3.00;2.10;;;;;;;;;;5121303;27;20899;-71
2021/05/27 01:03:52;;;;;;;2.50;1.80;;;;;;;;;;5110420;27;20741;-71
2021/05/27 01:06:19;;;;;;;2.43;1.70;;;;;;;;;;5100834;28;20554;-71
2021/05/27 01:08:46;;;;;;;2.60;1.77;;;;;;;;;;5108329;28;20937;-71
2021/05/27 01:11:16;;;;;;;4.40;1.47;;;;;;;;;;5121621;27;20466;-71
2021/05/27 01:13:45;;;;;;;3.10;1.67;;;;;;;;;;5116942;27;20577;-71
2021/05/27 01:16:26;;;;;;;3.37;1.63;;;;;;;;;;5105726;28;20475;-71
2021/05/27 01:18:55;;;;;;;2.57;1.40;;;;;;;;;;5104015;28;20473;-70
2021/05/27 01:21:22;;;;;;;3.07;1.90;;;;;;;;;;5120490;27;20520;-70
2021/05/27 01:23:50;;;;;;;2.63;1.47;;;;;;;;;;5115418;27;21057;-70
2021/05/27 01:26:17;;;;;;;2.70;1.77;;;;;;;;;;5100472;28;20456;-73
2021/05/27 01:28:45;;;;;;;1.83;1.33;;;;;;;;;;5116233;27;20935;-70
2021/05/27 01:31:12;;;;;;;3.07;2.10;;;;;;;;;;5120697;27;20549;-70
2021/05/27 01:33:39;;;;;;;4.00;1.80;;;;;;;;;;5119961;27;20576;-70
2021/05/27 01:36:07;;;;;;;2.83;2.03;;;;;;;;;;5112837;27;20557;-71
2021/05/27 01:38:41;;;;;;;4.67;2.13;;;;;;;;;;5115899;27;20459;-71
2021/05/27 01:41:09;;;;;;;4.27;1.60;;;;;;;;;;5100047;28;20454;-70
2021/05/27 01:43:36;;;;;;;4.87;2.13;;;;;;;;;;5100337;28;20499;-70
2021/05/27 01:46:03;;;;;;;5.97;2.07;;;;;;;;;;5100380;27;20493;-70
2021/05/27 01:48:32;;;;;;;3.90;2.53;;;;;;;;;;5099970;28;20760;-70
2021/05/27 01:50:59;;;;;;;2.90;2.60;;;;;;;;;;5100087;28;20475;-70
2021/05/27 01:53:26;;;;;;;3.87;2.17;;;;;;;;;;5098086;28;20543;-70
2021/05/27 01:55:54;;;;;;;3.30;1.87;;;;;;;;;;5099713;28;20499;-70
2021/05/27 01:58:22;;;;;;;2.30;1.73;;;;;;;;;;5108557;28;20530;-70
2021/05/27 02:00:53;;;;;;;2.43;1.80;;;;;;;;;;5105149;27;20459;-70
2021/05/27 02:03:23;;;;;;;2.17;1.77;;;;;;;;;;5120323;27;20722;-70
2021/05/27 02:05:50;;;;;;;4.77;1.90;;;;;;;;;;5120281;27;20463;-70
2021/05/27 02:08:20;;;;;;;2.87;2.30;;;;;;;;;;5107879;28;20538;-70
2021/05/27 02:10:48;;;;;;;4.47;2.20;;;;;;;;;;5099362;28;20917;-70
2021/05/27 02:13:15;;;;;;;2.00;1.80;;;;;;;;;;5099534;28;20528;-70
2021/05/27 02:15:43;;;;;;;2.90;1.87;;;;;;;;;;5099553;28;20553;-70
2021/05/27 02:18:11;;;;;;;3.03;2.30;;;;;;;;;;5105222;27;20518;-70
2021/05/27 02:20:38;;;;;;;2.43;2.00;;;;;;;;;;5119638;27;20549;-70
2021/05/27 02:23:05;;;;;;;7.33;2.30;;;;;;;;;;5119769;27;20831;-70
2021/05/27 02:25:32;;;;;;;4.13;1.80;;;;;;;;;;5119645;27;20467;-70
2021/05/27 02:28:00;;;;;;;2.93;1.70;;;;;;;;;;5107867;27;20491;-71
2021/05/27 02:30:27;;;;;;;3.40;2.33;;;;;;;;;;5104625;27;20479;-70
2021/05/27 02:32:55;;;;;;;4.53;2.10;;;;;;;;;;5101039;28;20460;-70
2021/05/27 02:35:23;;;;;;;3.83;1.93;;;;;;;;;;5119452;27;20455;-70
2021/05/27 02:37:50;;;;;;;8.13;2.50;;;;;;;;;;5117381;27;20518;-70
2021/05/27 02:40:18;;;;;;;2.40;1.90;;;;;;;;;;5114948;27;20502;-71
2021/05/27 02:42:45;;;;;;;2.03;1.30;;;;;;;;;;5098652;28;20863;-70
2021/05/27 02:45:13;;;;;;;6.50;1.90;;;;;;;;;;5100993;28;20591;-70
2021/05/27 02:47:41;;;;;;;6.30;2.23;;;;;;;;;;5119023;27;20502;-70
2021/05/27 02:50:10;;;;;;;3.27;1.63;;;;;;;;;;5119063;27;20458;-70
2021/05/27 02:52:37;;;;;;;3.80;2.00;;;;;;;;;;5112531;27;20452;-70
2021/05/27 02:55:05;;;;;;;3.77;1.90;;;;;;;;;;5114215;27;20463;-70
2021/05/27 02:57:33;;;;;;;6.33;2.00;;;;;;;;;;5099584;28;20693;-70
2021/05/27 03:00:00;;;;;;;4.10;2.03;;;;;;;;;;5110771;27;20466;-70
2021/05/27 03:02:27;;;;;;;2.20;1.60;;;;;;;;;;5099992;28;20483;-70
2021/05/27 03:04:55;;;;;;;3.53;1.43;;;;;;;;;;5108921;27;20872;-70
2021/05/27 03:07:23;;;;;;;4.23;2.20;;;;;;;;;;5117247;27;20498;-70
2021/05/27 03:09:50;;;;;;;5.67;2.30;;;;;;;;;;5098169;28;20870;-70
2021/05/27 03:12:17;;;;;;;2.90;2.00;;;;;;;;;;5098769;28;20460;-70
2021/05/27 03:14:44;;;;;;;9.20;2.37;;;;;;;;;;5097530;28;20538;-70
2021/05/27 03:17:12;;;;;;;3.70;1.70;;;;;;;;;;5107083;27;20569;-70
2021/05/27 03:19:39;;;;;;;6.00;1.33;;;;;;;;;;5118756;27;20459;-70
2021/05/27 03:22:06;;;;;;;3.97;1.80;;;;;;;;;;5114353;27;20458;-70
2021/05/27 03:24:35;;;;;;;4.00;2.03;;;;;;;;;;5110776;27;20523;-72
2021/05/27 03:27:02;;;;;;;4.60;1.63;;;;;;;;;;5097834;28;20863;-70
2021/05/27 03:29:30;;;;;;;5.07;2.27;;;;;;;;;;5111514;27;20447;-71
2021/05/27 03:31:57;;;;;;;4.27;2.13;;;;;;;;;;5118173;27;20458;-71
2021/05/27 03:34:26;;;;;;;4.20;1.80;;;;;;;;;;5109078;27;20448;-70
2021/05/27 03:36:53;;;;;;;5.47;2.00;;;;;;;;;;5098193;28;20927;-70
2021/05/27 03:39:21;;;;;;;6.20;2.30;;;;;;;;;;5097720;28;20451;-70
2021/05/27 03:41:49;;;;;;;5.23;2.37;;;;;;;;;;5097593;28;20460;-70
2021/05/27 03:44:16;;;;;;;4.50;2.30;;;;;;;;;;5097822;28;20863;-69
2021/05/27 03:46:43;;;;;;;6.77;2.33;;;;;;;;;;5097758;28;20456;-70
2021/05/27 03:49:11;;;;;;;3.47;1.60;;;;;;;;;;5097605;28;20901;-70
2021/05/27 03:51:38;;;;;;;4.27;2.37;;;;;;;;;;5112942;28;20454;-70
2021/05/27 03:54:06;;;;;;;8.03;2.83;;;;;;;;;;5105419;28;20539;-70
2021/05/27 03:56:34;;;;;;;3.23;2.43;;;;;;;;;;5097144;28;20523;-70
2021/05/27 04:01:48;;;;;;;3.93;2.23;;;;;;;;;;5097711;28;20540;-69
2021/05/27 04:07:10;;;;;;;5.30;2.10;;;;;;;;;;5100535;27;20442;-70
2021/05/27 04:09:42;;;;;;;2.63;2.20;;;;;;;;;;5110816;27;20455;-71
2021/05/27 04:17:41;;;;;;;5.50;3.37;;;;;;;;;;5097063;27;20471;-71
2021/05/27 04:20:09;;;;;;;6.33;2.10;;;;;;;;;;5100574;27;21020;-70
2021/05/27 04:22:37;;;;;;;4.00;2.40;;;;;;;;;;5097581;28;20467;-70
2021/05/27 04:25:04;;;;;;;5.07;2.10;;;;;;;;;;5097320;28;20556;-71
2021/05/27 04:27:32;;;;;;;3.00;2.23;;;;;;;;;;5097481;28;20448;-70
2021/05/27 04:30:12;;;;;;;3.60;1.87;;;;;;;;;;5109829;27;20549;-72
2021/05/27 04:32:55;;;;;;;5.13;2.17;;;;;;;;;;5117259;27;20458;-72
2021/05/27 04:35:23;;;;;;;3.47;2.10;;;;;;;;;;5116905;27;21052;-72
2021/05/27 04:37:51;;;;;;;3.57;2.33;;;;;;;;;;5117090;27;20525;-71
2021/05/27 04:40:18;;;;;;;3.40;2.30;;;;;;;;;;5117734;27;20490;-72
2021/05/27 04:42:45;;;;;;;5.80;2.77;;;;;;;;;;5117389;27;20905;-72
2021/05/27 04:45:14;;;;;;;6.67;2.50;;;;;;;;;;5117490;27;20518;-71
2021/05/27 04:47:42;;;;;;;4.60;3.50;;;;;;;;;;5117024;27;20458;-71
2021/05/27 04:50:11;;;;;;;6.83;2.67;;;;;;;;;;5116503;27;20851;-72
2021/05/27 04:52:39;;;;;;;5.60;2.60;;;;;;;;;;5094157;28;20464;-72
2021/05/27 04:55:07;;;;;;;8.53;3.30;;;;;;;;;;5095239;28;20450;-71
2021/05/27 04:57:34;;;;;;;6.97;3.03;;;;;;;;;;5095569;28;20523;-71
2021/05/27 05:00:02;;;;;;;6.53;2.30;;;;;;;;;;5095687;28;20585;-71
2021/05/27 05:02:30;;;;;;;4.77;2.40;;;;;;;;;;5096616;27;20942;-71
2021/05/27 05:04:57;;;;;;;5.93;2.07;;;;;;;;;;5096592;27;20525;-71
2021/05/27 05:07:27;;;;;;;5.37;2.40;;;;;;;;;;5097126;27;20522;-71
2021/05/27 05:09:54;;;;;;;2.97;2.10;;;;;;;;;;5097227;27;20711;-72
2021/05/27 05:12:21;;;;;;;2.33;2.00;;;;;;;;;;5096774;27;20458;-71
2021/05/27 05:14:49;;;;;;;3.50;2.00;;;;;;;;;;5097385;28;20474;-71
2021/05/27 05:17:16;;;;;;;4.00;1.90;;;;;;;;;;5095644;28;20483;-71
2021/05/27 05:19:45;;;;;;;3.83;2.00;;;;;;;;;;5095226;28;20490;-70
2021/05/27 05:22:13;;;;;;;5.00;2.10;;;;;;;;;;5096468;28;20543;-71
2021/05/27 05:24:40;;;;;;;3.13;1.70;;;;;;;;;;5095494;28;20474;-71
2021/05/27 05:27:07;;;;;;;5.73;1.57;;;;;;;;;;5096083;28;20548;-70
2021/05/27 05:29:35;;;;;;;3.00;1.50;;;;;;;;;;5098958;28;20470;-70
2021/05/27 05:32:02;;;;;;;3.00;2.10;;;;;;;;;;5098398;28;20456;-71
2021/05/27 05:34:29;;;;;;;3.73;1.90;;;;;;;;;;5099192;27;20459;-70
2021/05/27 05:36:57;;;;;;;2.50;1.67;;;;;;;;;;5097968;28;20490;-70
2021/05/27 05:39:25;;;;;;;6.13;2.33;;;;;;;;;;5098829;28;20463;-71
2021/05/27 05:41:52;;;;;;;2.30;1.77;;;;;;;;;;5098446;28;20459;-70
2021/05/27 05:44:19;;;;;;;4.73;2.27;;;;;;;;;;5098959;28;20519;-70
2021/05/27 05:46:48;;;;;;;4.50;2.40;;;;;;;;;;5116185;27;20470;-70
2021/05/27 05:49:16;;;;;;;3.40;1.87;;;;;;;;;;5106248;28;20578;-71
2021/05/27 05:51:44;;;;;;;2.93;2.50;;;;;;;;;;5110937;27;20454;-70
2021/05/27 05:54:12;;;;;;;8.57;2.60;;;;;;;;;;5117895;27;20506;-70
2021/05/27 05:56:39;;;;;;;3.70;2.10;;;;;;;;;;5116844;27;20573;-70
2021/05/27 05:59:06;;;;;;;4.67;2.50;;;;;;;;;;5112401;27;20459;-70
2021/05/27 06:01:34;;;;;;;6.53;2.70;;;;;;;;;;5097971;28;20476;-71
2021/05/27 06:04:01;;;;;;;4.13;2.50;;;;;;;;;;5098536;28;20504;-70
2021/05/27 06:06:29;;;;;;;3.63;2.03;;;;;;;;;;5104621;27;20459;-71
2021/05/27 06:08:58;;;;;;;6.00;2.37;;;;;;;;;;5096772;28;20849;-70
2021/05/27 06:11:26;;;;;;;3.20;2.03;;;;;;;;;;5097672;28;20543;-70
2021/05/27 06:13:56;;;;;;;14.03;4.60;;;;;;;;;;5096903;28;20470;-70
2021/05/27 06:16:23;;;;;;;9.43;2.40;;;;;;;;;;5097298;27;20471;-70
2021/05/27 06:18:50;;;;;;;4.03;2.20;;;;;;;;;;5137576;27;20800;-70
2021/05/27 06:21:17;;;;;;;3.00;2.27;;;;;;;;;;5137954;27;20877;-70
2021/05/27 06:23:45;;;;;;;4.20;1.47;;;;;;;;;;5138057;27;20740;-69
2021/05/27 06:26:12;;;;;;;3.93;2.30;;;;;;;;;;5137788;27;20553;-70
2021/05/27 06:28:40;;;;;;;7.40;2.40;;;;;;;;;;5137214;27;20466;-69
2021/05/27 06:31:08;;;;;;;3.43;2.37;;;;;;;;;;5138767;27;20727;-69
2021/05/27 06:33:36;;;;;;;8.80;3.00;;;;;;;;;;5137743;27;20469;-71
2021/05/27 06:36:07;;;;;;;2.77;2.20;;;;;;;;;;5138799;27;20453;-71
2021/05/27 06:38:37;;;;;;;5.10;2.87;;;;;;;;;;5137082;27;20489;-71
2021/05/27 06:41:05;;;;;;;4.40;3.17;;;;;;;;;;5136601;27;20501;-70
2021/05/27 06:43:33;;;;;;;8.63;3.10;;;;;;;;;;5136712;27;20741;-70
2021/05/27 06:46:01;;;;;;;7.90;2.27;;;;;;;;;;5137277;27;20449;-70
2021/05/27 06:48:28;;;;;;;3.37;2.60;;;;;;;;;;5137462;27;20741;-70
2021/05/27 06:50:56;;;;;;;4.10;2.20;;;;;;;;;;5137971;27;20458;-71
2021/05/27 06:53:23;;;;;;;5.47;3.20;;;;;;;;;;5138116;27;20489;-71
2021/05/27 06:55:50;;;;;;;6.00;3.07;;;;;;;;;;5123963;27;20541;-71
2021/05/27 06:58:18;;;;;;;5.37;3.10;;;;;;;;;;5096832;28;20611;-71
2021/05/27 07:00:45;;;;;;;3.47;2.03;;;;;;;;;;5096553;28;20462;-71
2021/05/27 07:03:22;;;;;;;6.17;2.30;;;;;;;;;;5096689;28;20541;-72
2021/05/27 07:05:49;;;;;;;4.07;2.20;;;;;;;;;;5097617;28;20447;-71
2021/05/27 07:08:17;;;;;;;4.50;2.17;;;;;;;;;;5117062;27;20546;-70
2021/05/27 07:10:47;;;;;;;5.90;1.73;;;;;;;;;;5117649;27;20451;-70
2021/05/27 07:13:14;;;;;;;4.80;3.10;;;;;;;;;;5117973;27;20458;-70
2021/05/27 07:15:42;;;;;;;4.00;2.07;;;;;;;;;;5117624;27;20545;-72
2021/05/27 07:18:09;;;;;;;4.87;2.53;;;;;;;;;;5117757;27;20555;-70
2021/05/27 07:20:39;;;;;;;3.63;2.53;;;;;;;;;;5117715;27;20525;-71
2021/05/27 07:23:06;;;;;;;7.03;3.30;;;;;;;;;;5117366;27;20784;-71
2021/05/27 07:25:33;;;;;;;4.97;2.40;;;;;;;;;;5115506;27;20518;-71
2021/05/27 07:28:03;;;;;;;6.40;2.60;;;;;;;;;;5117139;27;20713;-70
2021/05/27 07:30:32;;;;;;;5.03;2.90;;;;;;;;;;5117075;27;20813;-70
2021/05/27 07:33:01;;;;;;;4.40;2.80;;;;;;;;;;5115197;27;20736;-70
2021/05/27 07:35:29;;;;;;;8.13;2.80;;;;;;;;;;5116293;27;20455;-70
2021/05/27 07:37:58;;;;;;;11.70;2.77;;;;;;;;;;5115759;27;20493;-70
2021/05/27 07:40:26;;;;;;;5.23;2.17;;;;;;;;;;5116770;27;20526;-70
2021/05/27 07:42:53;;;;;;;3.43;2.00;;;;;;;;;;5102154;27;20898;-70
2021/05/27 07:45:21;;;;;;;5.27;2.67;;;;;;;;;;5096414;28;20547;-70
2021/05/27 07:47:48;;;;;;;7.27;2.40;;;;;;;;;;5095641;28;20721;-71
2021/05/27 07:50:20;;;;;;;3.57;2.50;;;;;;;;;;5095350;28;20516;-71
2021/05/27 07:52:47;;;;;;;2.53;1.70;;;;;;;;;;5096150;28;20464;-71
2021/05/27 07:55:16;;;;;;;6.30;2.33;;;;;;;;;;5097888;28;20451;-71
2021/05/27 07:57:44;;;;;;;4.43;2.10;;;;;;;;;;5116604;27;20806;-70
2021/05/27 08:00:11;;;;;;;4.53;1.73;;;;;;;;;;5116600;27;20455;-69
2021/05/27 08:02:46;;;;;;;5.00;2.00;;;;;;;;;;5113746;27;20883;-70
2021/05/27 08:05:19;;;;;;;3.83;1.70;;;;;;;;;;5110206;27;20875;-70
2021/05/27 08:07:49;;;;;;;3.67;1.87;;;;;;;;;;5107017;27;20462;-72
2021/05/27 08:10:18;;;;;;;4.23;2.47;;;;;;;;;;5088026;27;20796;-71
2021/05/27 08:12:46;;;;;;;2.43;1.50;;;;;;;;;;5110091;28;20455;-69
2021/05/27 08:15:22;;;;;;;3.20;2.43;;;;;;;;;;5096565;27;20459;-72
2021/05/27 08:17:52;;;;;;;2.63;1.20;;;;;;;;;;5111257;27;20478;-71
2021/05/27 08:20:20;;;;;;;4.70;1.47;;;;;;;;;;5116585;27;20465;-71
2021/05/27 08:22:49;;;;;;;4.50;1.40;;;;;;;;;;5116051;27;20533;-71
2021/05/27 08:25:16;;;;;;;6.30;4.33;;;;;;;;;;5116515;27;20538;-70
2021/05/27 08:27:44;;;;;;;6.50;2.57;;;;;;;;;;5115560;27;20463;-71
2021/05/27 08:30:11;;;;;;;3.07;1.90;;;;;;;;;;5116254;27;20538;-71
2021/05/27 08:32:39;;;;;;;4.80;1.40;;;;;;;;;;5114796;27;20490;-71
2021/05/27 08:35:07;;;;;;;2.53;2.27;;;;;;;;;;5114255;27;20459;-71
2021/05/27 08:37:34;;;;;;;4.37;1.60;;;;;;;;;;5114362;27;20590;-71
2021/05/27 08:40:02;;;;;;;3.87;1.63;;;;;;;;;;5114911;27;20458;-71
2021/05/27 08:42:33;;;;;;;2.37;1.20;;;;;;;;;;5114024;27;20570;-71
2021/05/27 08:45:28;;;;;;;4.30;1.70;;;;;;;;;;5096151;28;20521;-71
2021/05/27 08:48:03;;;;;;;3.20;1.00;;;;;;;;;;5095161;28;20459;-71
2021/05/27 08:50:32;;;;;;;2.50;1.20;;;;;;;;;;5095656;28;20485;-71
2021/05/27 08:53:00;;;;;;;3.00;1.10;;;;;;;;;;5095387;28;20827;-71
2021/05/27 08:55:32;;;;;;;2.23;1.10;;;;;;;;;;5095517;28;20459;-72
2021/05/27 08:58:00;;;;;;;2.67;1.00;;;;;;;;;;5104815;27;20806;-71
2021/05/27 09:00:27;;;;;;;5.10;1.30;;;;;;;;;;5115311;27;20538;-71
2021/05/27 09:02:55;;;;;;;5.10;1.30;;;;;;;;;;5112109;27;21063;-71
2021/05/27 09:05:27;;;;;;;4.97;1.63;;;;;;;;;;5106032;27;20565;-69
2021/05/27 09:07:56;;;;;;;2.50;1.37;;;;;;;;;;5100702;28;20456;-70
2021/05/27 09:10:39;;;;;;;2.90;1.60;;;;;;;;;;5099335;28;20460;-70
2021/05/27 09:13:09;;;;;;;1.67;0.90;;;;;;;;;;5098854;28;20523;-70
2021/05/27 09:15:36;;;;;;;1.50;0.87;;;;;;;;;;5114149;27;20450;-69
2021/05/27 09:18:07;;;;;;;3.10;1.47;;;;;;;;;;5119030;27;20486;-70
2021/05/27 09:20:37;;;;;;;1.67;0.90;;;;;;;;;;5119071;27;20949;-70
2021/05/27 09:23:14;;;;;;;4.73;1.20;;;;;;;;;;5098602;28;20478;-70
2021/05/27 09:25:51;;;;;;;3.53;1.20;;;;;;;;;;5099463;28;20461;-71
2021/05/27 09:28:29;;;;;;;3.00;1.17;;;;;;;;;;5098954;28;20469;-70
2021/05/27 09:30:57;;;;;;;3.80;1.00;;;;;;;;;;5098228;28;20547;-71
2021/05/27 09:33:34;;;;;;;2.87;1.17;;;;;;;;;;5098649;28;20501;-71
2021/05/27 09:36:03;;;;;;;2.90;1.10;;;;;;;;;;5098514;28;20533;-71
2021/05/27 09:38:30;;;;;;;1.87;0.90;;;;;;;;;;5098003;28;20502;-71
2021/05/27 09:40:58;;;;;;;1.93;1.10;;;;;;;;;;5098817;27;20482;-71
2021/05/27 09:43:26;;;;;;;2.17;0.90;;;;;;;;;;5099731;28;20478;-71
2021/05/27 09:46:06;;;;;;;2.10;0.93;;;;;;;;;;5098267;28;20475;-70
2021/05/27 09:48:34;;;;;;;3.73;1.00;;;;;;;;;;5098628;28;20477;-71
2021/05/27 09:51:02;;;;;;;1.83;0.97;;;;;;;;;;5115892;27;20511;-71
2021/05/27 09:53:30;;;;;;;1.67;0.80;;;;;;;;;;5111334;27;20463;-70
2021/05/27 09:55:58;;;;;;;2.20;1.20;;;;;;;;;;5098740;28;20440;-70
2021/05/27 09:58:26;;;;;;;1.67;0.87;;;;;;;;;;5098370;27;20512;-71
2021/05/27 10:00:54;;;;;;;2.57;0.97;;;;;;;;;;5098934;28;20481;-70
2021/05/27 10:03:28;;;;;;;1.70;1.07;;;;;;;;;;5114448;27;20797;-71
2021/05/27 10:06:00;;;;;;;4.27;1.53;;;;;;;;;;5118782;27;20493;-70
2021/05/27 10:08:29;;;;;;;3.33;1.30;;;;;;;;;;5119054;27;20474;-72
2021/05/27 10:10:57;;;;;;;2.10;1.10;;;;;;;;;;5118369;27;20470;-71
2021/05/27 10:13:29;;;;;;;3.80;1.80;;;;;;;;;;5117814;27;20480;-72
2021/05/27 10:15:57;;;;;;;2.87;1.57;;;;;;;;;;5099635;27;20468;-71
2021/05/27 10:18:29;;;;;;;7.90;5.90;;;;;;;;;;5102186;27;20922;-71
2021/05/27 10:20:59;;;;;;;1.90;1.30;;;;;;;;;;5095980;28;20501;-71
2021/05/27 10:23:26;;;;;;;1.80;1.23;;;;;;;;;;5096481;28;21193;-70
2021/05/27 10:25:56;;;;;;;3.80;1.30;;;;;;;;;;5109015;27;20464;-70
2021/05/27 10:28:27;;;;;;;2.87;1.80;;;;;;;;;;5097862;28;20483;-71
2021/05/27 10:30:55;;;;;;;3.07;1.37;;;;;;;;;;5109141;27;20463;-71
2021/05/27 10:33:24;;;;;;;2.23;0.90;;;;;;;;;;5117151;27;20451;-70
2021/05/27 10:35:56;;;;;;;2.23;1.20;;;;;;;;;;5115517;27;20534;-70
2021/05/27 10:38:42;;;;;;;2.80;1.30;;;;;;;;;;5117796;27;20605;-71
2021/05/27 10:41:11;;;;;;;1.80;1.00;;;;;;;;;;5118265;27;20473;-71
2021/05/27 10:43:58;;;;;;;1.73;0.80;;;;;;;;;;5117610;27;20493;-71
2021/05/27 10:46:26;;;;;;;2.80;1.30;;;;;;;;;;5117885;27;20497;-70
2021/05/27 10:48:56;;;;;;;1.50;1.07;;;;;;;;;;5107763;27;20471;-70
2021/05/27 10:51:26;;;;;;;3.80;1.37;;;;;;;;;;5098220;28;20489;-71
2021/05/27 10:53:58;;;;;;;2.80;0.90;;;;;;;;;;5097014;28;20500;-70
2021/05/27 10:56:46;;;;;;;2.17;1.30;;;;;;;;;;5097488;28;20537;-71
2021/05/27 10:59:15;;;;;;;2.00;1.07;;;;;;;;;;5096177;28;20466;-71
2021/05/27 11:02:02;;;;;;;3.20;1.00;;;;;;;;;;5098636;28;20589;-72
2021/05/27 11:04:43;;;;;;;3.93;0.87;;;;;;;;;;5117008;27;20458;-70
2021/05/27 11:07:28;;;;;;;2.90;1.30;;;;;;;;;;5117122;27;20564;-71
2021/05/27 11:09:56;;;;;;;2.30;1.17;;;;;;;;;;5114343;27;20455;-70
2021/05/27 11:12:38;;;;;;;3.50;1.00;;;;;;;;;;5099850;27;20455;-70
2021/05/27 11:15:18;;;;;;;1.50;0.80;;;;;;;;;;5094395;28;20469;-70
2021/05/27 11:18:04;;;;;;;1.73;1.10;;;;;;;;;;5096870;28;20914;-70
2021/05/27 11:20:33;;;;;;;2.40;0.80;;;;;;;;;;5101829;28;21045;-71
2021/05/27 11:23:23;;;;;;;1.30;0.70;;;;;;;;;;5097537;28;20458;-71
2021/05/27 11:25:52;;;;;;;1.90;0.80;;;;;;;;;;5116208;27;20508;-71
2021/05/27 11:28:24;;;;;;;5.33;1.67;;;;;;;;;;5112644;27;20479;-71
2021/05/27 11:30:53;;;;;;;1.20;0.80;;;;;;;;;;5096990;27;20452;-71
2021/05/27 11:33:34;;;;;;;2.63;0.90;;;;;;;;;;5094123;27;20854;-71
2021/05/27 11:36:09;;;;;;;2.30;0.90;;;;;;;;;;5098921;28;20466;-70
2021/05/27 11:38:37;;;;;;;2.17;1.10;;;;;;;;;;5104328;28;20835;-70
2021/05/27 11:41:09;;;;;;;1.60;1.20;;;;;;;;;;5118816;27;20459;-70
2021/05/27 11:43:38;;;;;;;2.43;1.07;;;;;;;;;;5119169;27;20538;-69
2021/05/27 11:46:10;;;;;;;4.57;2.50;;;;;;;;;;5107399;27;20568;-70
2021/05/27 11:48:46;;;;;;;2.30;1.00;;;;;;;;;;5117178;27;20490;-69
2021/05/27 11:51:14;;;;;;;3.60;1.27;;;;;;;;;;5115954;27;20458;-71
2021/05/27 11:53:50;;;;;;;1.50;0.83;;;;;;;;;;5115342;27;20737;-68
2021/05/27 11:56:38;;;;;;;1.70;0.93;;;;;;;;;;5114806;27;20466;-70
2021/05/27 11:59:09;;;;;;;1.40;0.90;;;;;;;;;;5109771;27;20535;-70
2021/05/27 12:01:36;;;;;;;6.10;2.50;;;;;;;;;;5116230;27;20466;-70
2021/05/27 12:04:21;;;;;;;1.43;0.80;;;;;;;;;;5117027;27;20550;-70
2021/05/27 12:07:09;;;;;;;1.73;0.70;;;;;;;;;;5115724;27;20871;-71
2021/05/27 12:09:58;;;;;;;2.10;1.17;;;;;;;;;;5114896;27;20451;-71
2021/05/27 12:15:26;;;;;;;3.73;1.23;;;;;;;;;;5112682;27;20814;-71
2021/05/27 12:17:59;;;;;;;2.70;1.10;;;;;;;;;;5096193;28;20518;-71
2021/05/27 12:20:30;;;;;;;1.30;1.00;;;;;;;;;;5112748;27;20471;-70
2021/05/27 12:23:00;;;;;;;5.57;1.83;;;;;;;;;;5116313;27;20458;-70
2021/05/27 12:25:28;;;;;;;3.47;1.20;;;;;;;;;;5116562;27;20488;-70
2021/05/27 12:28:15;;;;;;;2.53;1.10;;;;;;;;;;5113938;27;20502;-71
2021/05/27 12:31:02;;;;;;;3.53;1.73;;;;;;;;;;5057460;28;20467;-71
2021/05/27 12:33:44;;;;;;;3.27;1.60;;;;;;;;;;5096513;28;20462;-71
2021/05/27 12:36:25;;;;;;;3.20;1.27;;;;;;;;;;5096269;28;20462;-71
2021/05/27 12:44:52;;;;;;;2.30;1.33;;;;;;;;;;5094134;28;20444;-71
2021/05/27 12:47:48;;;;;;;4.90;1.50;;;;;;;;;;5096908;28;20471;-72
2021/05/27 12:50:51;;;;;;;6.83;1.10;;;;;;;;;;5096568;28;20447;-71
2021/05/27 12:53:52;;;;;;;4.90;1.73;;;;;;;;;;5050182;28;20449;-71
2021/05/27 12:56:37;;;;;;;3.27;1.00;;;;;;;;;;5016917;28;20475;-70
2021/05/27 13:02:10;;;;;;;2.83;1.47;;;;;;;;;;5061823;28;20458;-71
2021/05/27 13:04:42;;;;;;;1.87;1.00;;;;;;;;;;5066622;28;20485;-70
2021/05/27 13:07:27;;;;;;;4.40;1.13;;;;;;;;;;5073055;28;20441;-71
2021/05/27 13:10:11;;;;;;;1.40;0.90;;;;;;;;;;5053412;28;20454;-71
2021/05/27 13:15:59;;;;;;;1.83;0.60;;;;;;;;;;5052800;28;20461;-71
2021/05/27 13:18:45;;;;;;;2.07;0.80;;;;;;;;;;5053337;28;20568;-70
2021/05/27 13:21:49;;;;;;;2.90;1.40;;;;;;;;;;5053909;28;20453;-70
2021/05/27 13:24:39;;;;;;;;;;;;;;;;;;;;;
2021/05/27 13:30:30;;;;;;;3.30;1.30;;;;;;;;;;5094488;28;20436;-70
2021/05/27 13:36:18;;;;;;;2.50;1.30;;;;;;;;;;5112971;27;20459;-72
2021/05/27 13:38:52;;;;;;;2.30;0.80;;;;;;;;;;5117504;27;20490;-71
2021/05/27 13:44:21;;;;;;;2.50;1.30;;;;;;;;;;5062005;28;21173;-71
2021/05/27 13:47:01;;;;;;;3.13;1.00;;;;;;;;;;5106229;27;20482;-71
2021/05/27 13:52:21;;;;;;;1.63;0.80;;;;;;;;;;5109331;27;20462;-71
2021/05/27 13:55:06;;;;;;;2.17;0.80;;;;;;;;;;5115417;27;20473;-71
2021/05/27 14:00:45;;;;;;;3.33;1.10;;;;;;;;;;5097736;28;20458;-71
2021/05/27 14:03:17;;;;;;;2.03;0.93;;;;;;;;;;5099372;28;20447;-71
2021/05/27 14:09:06;;;;;;;1.50;0.90;;;;;;;;;;5118051;27;20490;-71
2021/05/27 14:11:44;;;;;;;3.87;1.10;;;;;;;;;;5109095;28;20457;-73
2021/05/27 14:14:16;;;;;;;4.70;1.83;;;;;;;;;;5100352;28;20440;-71
2021/05/27 14:17:07;;;;;;;5.30;1.10;;;;;;;;;;5100394;28;20527;-71
2021/05/27 14:19:50;;;;;;;2.33;1.03;;;;;;;;;;5099246;28;20860;-71
2021/05/27 14:22:23;;;;;;;1.77;1.10;;;;;;;;;;5104110;28;20483;-71
2021/05/27 14:25:00;;;;;;;2.67;1.00;;;;;;;;;;5098618;27;20464;-72
2021/05/27 14:27:38;;;;;;;2.90;1.20;;;;;;;;;;5098171;28;21061;-71
2021/05/27 14:30:09;;;;;;;2.63;1.20;;;;;;;;;;5109799;27;20470;-71
2021/05/27 14:32:40;;;;;;;2.07;0.70;;;;;;;;;;5098973;28;20456;-71
2021/05/27 14:35:08;;;;;;;3.87;1.70;;;;;;;;;;5117808;27;20502;-71
2021/05/27 14:37:36;;;;;;;2.80;1.43;;;;;;;;;;5119896;27;20546;-71
2021/05/27 14:40:19;;;;;;;3.20;1.37;;;;;;;;;;5118940;27;20469;-71
2021/05/27 14:42:58;;;;;;;1.90;1.20;;;;;;;;;;5103333;27;20474;-71
2021/05/27 14:45:29;;;;;;;8.20;2.80;;;;;;;;;;5124470;27;20482;-71
2021/05/27 14:47:56;;;;;;;2.00;1.10;;;;;;;;;;5097218;28;20551;-72
2021/05/27 15:00:08;;;;;;;2.20;1.20;;;;;;;;;;5106884;27;20439;-70
2021/05/27 15:03:06;;;;;;;2.97;1.50;;;;;;;;;;5095252;28;20451;-73
2021/05/27 15:06:06;;;;;;;2.77;1.57;;;;;;;;;;5096336;28;20530;-72
2021/05/27 15:15:19;;;;;;;1.60;1.10;;;;;;;;;;5055617;28;20491;-72
2021/05/27 15:18:01;;;;;;;2.03;1.10;;;;;;;;;;5085976;27;20565;-71
2021/05/27 15:20:34;;;;;;;2.10;1.37;;;;;;;;;;5098227;28;20447;-71
2021/05/27 15:23:02;;;;;;;3.17;1.57;;;;;;;;;;5102989;28;20471;-70
2021/05/27 15:25:40;;;;;;;1.97;1.10;;;;;;;;;;5102792;28;20483;-72
2021/05/27 15:28:24;;;;;;;1.93;1.20;;;;;;;;;;5117549;27;20557;-70
2021/05/27 15:30:58;;;;;;;1.60;1.30;;;;;;;;;;5084695;28;20538;-72
2021/05/27 15:33:43;;;;;;;1.77;1.43;;;;;;;;;;5096829;28;20467;-70
2021/05/27 15:36:16;;;;;;;2.57;1.70;;;;;;;;;;5096650;28;20471;-71
2021/05/27 15:38:45;;;;;;;3.10;1.30;;;;;;;;;;5098011;28;20565;-71
2021/05/27 15:41:17;;;;;;;2.23;1.30;;;;;;;;;;5097156;28;20465;-70
2021/05/27 15:50:28;;;;;;;1.87;1.20;;;;;;;;;;5114447;27;20459;-72
2021/05/27 15:52:57;;;;;;;4.10;1.60;;;;;;;;;;5112330;27;20542;-71
2021/05/27 15:55:33;;;;;;;3.47;1.43;;;;;;;;;;5097835;28;20521;-71
2021/05/27 15:58:23;;;;;;;4.23;1.93;;;;;;;;;;5096602;28;20518;-72
2021/05/27 16:03:52;;;;;;;2.20;2.00;;;;;;;;;;5087284;27;20443;-70
2021/05/27 16:06:20;;;;;;;2.10;1.57;;;;;;;;;;5095093;28;20510;-70
2021/05/27 16:08:52;;;;;;;3.00;1.40;;;;;;;;;;5098913;28;20451;-72
2021/05/27 16:11:26;;;;;;;2.60;1.80;;;;;;;;;;5095398;28;20494;-70
2021/05/27 16:16:58;;;;;;;2.00;1.50;;;;;;;;;;5033827;28;20442;-72
2021/05/27 16:19:25;;;;;;;3.43;1.70;;;;;;;;;;5080806;28;20493;-72
2021/05/27 16:21:52;;;;;;;2.53;1.40;;;;;;;;;;5097505;28;20507;-71
2021/05/27 16:24:21;;;;;;;2.67;1.27;;;;;;;;;;5096546;28;20463;-71